createdAt,value
2023-05-23T00:00:22.418Z,102119.03
2023-05-23T00:02:50.976Z,102106.84
2023-05-23T00:05:19.408Z,102116.16
2023-05-23T00:07:47.694Z,102100.59
2023-05-23T00:10:16.046Z,102110.25
2023-05-23T00:12:48.149Z,102091.22
2023-05-23T00:15:16.399Z,102122.31
2023-05-23T00:17:44.789Z,102125.34
2023-05-23T00:20:13.780Z,102082.09
2023-05-23T00:22:43.536Z,102134.34
2023-05-23T00:25:12.220Z,102127.56
2023-05-23T00:27:40.490Z,102124.19
2023-05-23T00:30:11.210Z,102132.63
2023-05-23T00:32:39.462Z,102127.97
2023-05-23T00:35:09.656Z,102120.03
2023-05-23T00:37:38.257Z,102137.38
2023-05-23T00:40:08.588Z,102152.91
2023-05-23T00:42:36.818Z,102155.53
2023-05-23T00:45:06.641Z,102139.16
2023-05-23T00:47:38.176Z,102157.94
2023-05-23T00:50:11.807Z,102162.31
2023-05-23T00:52:40.607Z,102164.97
2023-05-23T00:55:10.524Z,102171.22
2023-05-23T00:57:40.490Z,102144.88
2023-05-23T01:00:10.920Z,102166.97
2023-05-23T01:02:45.195Z,102159.75
2023-05-23T01:05:17.678Z,102159.97
2023-05-23T01:07:46.853Z,102158.28
2023-05-23T01:10:16.397Z,102154.16
2023-05-23T01:12:59.783Z,102155.50
2023-05-23T01:15:36.204Z,102161.00
2023-05-23T01:18:12.270Z,102157.31
2023-05-23T01:20:47.263Z,102161.41
2023-05-23T01:23:55.645Z,102161.22
2023-05-23T01:26:35.101Z,102155.47
2023-05-23T01:29:12.165Z,102132.63
2023-05-23T01:31:45.921Z,102164.41
2023-05-23T01:34:17.102Z,102149.13
2023-05-23T01:36:45.556Z,102165.03
2023-05-23T01:39:13.795Z,102161.91
2023-05-23T01:41:42.041Z,102141.06
2023-05-23T01:44:11.921Z,102168.16
2023-05-23T01:46:41.916Z,102156.50
2023-05-23T01:49:13.517Z,102154.50
2023-05-23T01:51:43.083Z,102148.47
2023-05-23T01:54:11.569Z,102144.25
2023-05-23T01:56:40.733Z,102165.56
2023-05-23T01:59:09.067Z,102171.69
2023-05-23T02:01:39.788Z,102152.81
2023-05-23T02:04:08.168Z,102182.41
2023-05-23T02:06:36.563Z,102189.78
2023-05-23T02:09:04.893Z,102181.94
2023-05-23T02:11:33.734Z,102140.41
2023-05-23T02:14:02.528Z,102188.75
2023-05-23T02:16:30.816Z,102198.31
2023-05-23T02:19:02.114Z,102188.78
2023-05-23T02:21:34.272Z,102181.69
2023-05-23T02:24:05.026Z,102184.72
2023-05-23T02:26:33.311Z,102184.13
2023-05-23T02:29:01.505Z,102178.81
2023-05-23T02:31:29.899Z,102167.28
2023-05-23T02:33:58.168Z,102192.19
2023-05-23T02:36:27.732Z,102171.19
2023-05-23T02:38:58.902Z,102158.28
2023-05-23T02:41:27.206Z,102105.56
2023-05-23T02:43:56.848Z,102176.75
2023-05-23T02:46:25.257Z,102176.97
2023-05-23T02:48:53.581Z,102181.59
2023-05-23T02:51:21.812Z,102166.03
2023-05-23T02:53:51.910Z,102184.53
2023-05-23T02:56:22.374Z,102179.69
2023-05-23T02:58:51.000Z,102183.59
2023-05-23T03:01:19.901Z,102181.53
2023-05-23T03:03:48.492Z,102189.63
2023-05-23T03:06:17.110Z,102168.03
2023-05-23T03:08:45.817Z,102188.16
2023-05-23T03:11:15.435Z,102184.25
2023-05-23T03:13:45.658Z,102183.56
2023-05-23T03:16:14.013Z,102192.19
2023-05-23T03:18:42.667Z,102189.06
2023-05-23T03:21:11.001Z,102179.88
2023-05-23T03:23:39.398Z,102192.88
2023-05-23T03:26:07.901Z,102201.78
2023-05-23T03:28:38.173Z,102149.25
2023-05-23T03:31:06.665Z,102201.38
2023-05-23T03:33:35.797Z,102170.50
2023-05-23T03:36:06.108Z,102163.78
2023-05-23T03:38:34.392Z,102172.47
2023-05-23T03:41:02.704Z,102214.19
2023-05-23T03:43:31.018Z,102217.28
2023-05-23T03:46:01.136Z,102205.59
2023-05-23T03:48:30.499Z,102219.44
2023-05-23T03:50:59.150Z,102217.31
2023-05-23T03:53:27.580Z,102224.81
2023-05-23T03:55:56.780Z,102196.63
2023-05-23T03:58:25.052Z,102222.41
2023-05-23T04:00:59.100Z,102167.28
2023-05-23T04:03:32.781Z,102221.13
2023-05-23T04:06:01.883Z,102233.66
2023-05-23T04:08:34.100Z,102244.38
2023-05-23T04:11:02.941Z,102242.56
2023-05-23T04:13:35.575Z,102224.38
2023-05-23T04:16:05.835Z,102246.34
2023-05-23T04:18:36.067Z,102244.09
2023-05-23T04:21:04.561Z,102239.97
2023-05-23T04:23:33.931Z,102248.59
2023-05-23T04:26:02.830Z,102228.34
2023-05-23T04:28:35.712Z,102229.44
2023-05-23T04:31:04.308Z,102215.50
2023-05-23T04:33:37.451Z,102254.28
2023-05-23T04:36:09.526Z,102260.63
2023-05-23T04:38:41.176Z,102254.16
2023-05-23T04:41:11.279Z,102271.78
2023-05-23T04:43:48.817Z,102249.19
2023-05-23T04:46:29.610Z,102278.41
2023-05-23T04:49:22.798Z,102272.63
2023-05-23T04:51:51.353Z,102283.06
2023-05-23T04:54:30.218Z,102279.41
2023-05-23T04:57:00.722Z,102292.25
2023-05-23T04:59:30.648Z,102265.56
2023-05-23T05:01:59.157Z,102292.94
2023-05-23T05:04:28.899Z,102286.03
2023-05-23T05:06:57.550Z,102301.69
2023-05-23T05:09:26.152Z,102306.59
2023-05-23T05:11:56.824Z,102289.28
2023-05-23T05:14:25.100Z,102308.03
2023-05-23T05:16:54.606Z,102275.28
2023-05-23T05:19:24.176Z,102297.47
2023-05-23T05:21:54.608Z,102318.75
2023-05-23T05:24:22.849Z,102323.28
2023-05-23T05:26:51.880Z,102316.47
2023-05-23T05:29:20.301Z,102283.41
2023-05-23T05:31:48.819Z,102290.56
2023-05-23T05:34:17.160Z,102324.53
2023-05-23T05:36:48.098Z,102332.00
2023-05-23T05:39:19.893Z,102305.50
2023-05-23T05:41:48.207Z,102334.59
2023-05-23T05:44:16.557Z,102319.41
2023-05-23T05:46:46.815Z,102332.56
2023-05-23T05:49:15.208Z,102345.81
2023-05-23T05:51:45.704Z,102349.22
2023-05-23T05:54:14.313Z,102354.16
2023-05-23T05:56:44.546Z,102360.06
2023-05-23T05:59:12.903Z,102367.16
2023-05-23T06:01:42.080Z,102351.06
2023-05-23T06:04:10.566Z,102331.06
2023-05-23T06:06:38.903Z,102328.06
2023-05-23T06:09:07.487Z,102365.31
2023-05-23T06:11:39.515Z,102369.09
2023-05-23T06:14:09.893Z,102364.88
2023-05-23T06:16:42.422Z,102322.09
2023-05-23T06:19:10.781Z,102381.41
2023-05-23T06:21:40.806Z,102376.88
2023-05-23T06:24:11.373Z,102372.22
2023-05-23T06:26:39.603Z,102379.09
2023-05-23T06:29:09.322Z,102314.00
2023-05-23T06:31:37.572Z,102377.75
2023-05-23T06:34:07.066Z,102362.13
2023-05-23T06:36:35.541Z,102381.34
2023-05-23T06:39:03.752Z,102373.84
2023-05-23T06:41:31.971Z,102385.03
2023-05-23T06:44:00.229Z,102387.19
2023-05-23T06:46:33.290Z,102388.72
2023-05-23T06:49:14.213Z,102397.63
2023-05-23T06:51:45.060Z,102358.09
2023-05-23T06:54:13.824Z,102401.44
2023-05-23T06:56:42.463Z,102400.59
2023-05-23T06:59:11.296Z,102397.91
2023-05-23T07:01:41.963Z,102353.59
2023-05-23T07:04:12.166Z,102383.78
2023-05-23T07:06:40.605Z,102385.47
2023-05-23T07:09:11.872Z,102405.69
2023-05-23T07:11:41.268Z,102420.78
2023-05-23T07:14:10.644Z,102422.34
2023-05-23T07:16:44.299Z,102388.81
2023-05-23T07:19:13.669Z,102427.56
2023-05-23T07:21:53.065Z,102398.16
2023-05-23T07:24:22.802Z,102413.81
2023-05-23T07:26:52.690Z,102389.50
2023-05-23T07:29:21.033Z,102428.53
2023-05-23T07:31:53.611Z,102417.66
2023-05-23T07:34:23.651Z,102425.00
2023-05-23T07:36:56.182Z,102427.97
2023-05-23T07:39:27.909Z,102405.53
2023-05-23T07:41:59.884Z,102425.44
2023-05-23T07:44:29.799Z,102375.47
2023-05-23T07:46:59.792Z,102438.56
2023-05-23T07:49:28.353Z,102410.44
2023-05-23T07:51:57.692Z,102435.69
2023-05-23T07:54:26.538Z,102449.28
2023-05-23T07:57:00.507Z,102440.38
2023-05-23T07:59:30.162Z,102429.81
2023-05-23T08:02:00.344Z,102443.22
2023-05-23T08:04:31.095Z,102446.47
2023-05-23T08:07:05.563Z,102439.41
2023-05-23T08:09:50.955Z,102422.72
2023-05-23T08:12:21.537Z,102470.22
2023-05-23T08:14:53.940Z,102406.69
2023-05-23T08:17:28.519Z,102454.47
2023-05-23T08:20:00.678Z,102463.00
2023-05-23T08:22:29.425Z,102449.16
2023-05-23T08:24:57.987Z,102464.69
2023-05-23T08:27:28.306Z,102459.00
2023-05-23T08:30:00.227Z,102457.16
2023-05-23T08:32:30.185Z,102455.09
2023-05-23T08:34:59.671Z,102451.50
2023-05-23T08:37:27.903Z,102450.06
2023-05-23T08:39:57.721Z,102446.31
2023-05-23T08:42:45.282Z,102437.88
2023-05-23T08:45:16.219Z,102437.81
2023-05-23T08:47:47.836Z,102435.44
2023-05-23T08:50:23.655Z,102443.56
2023-05-23T08:52:58.160Z,102421.25
2023-05-23T08:55:29.992Z,102434.34
2023-05-23T08:58:00.881Z,102464.06
2023-05-23T09:00:56.123Z,102452.66
2023-05-23T09:03:28.305Z,102437.88
2023-05-23T09:06:18.229Z,102471.28
2023-05-23T09:08:46.956Z,102473.53
2023-05-23T09:11:16.954Z,102436.72
2023-05-23T09:13:46.683Z,102459.38
2023-05-23T09:16:18.935Z,102474.91
2023-05-23T09:18:59.472Z,102425.16
2023-05-23T09:21:33.987Z,102475.41
2023-05-23T09:24:11.752Z,102470.66
2023-05-23T09:26:40.466Z,102467.44
2023-05-23T09:29:09.219Z,102468.50
2023-05-23T09:31:37.654Z,102473.72
2023-05-23T09:34:10.859Z,102468.88
2023-05-23T09:36:44.161Z,102457.06
2023-05-23T09:39:14.029Z,102458.63
2023-05-23T09:41:42.362Z,102480.28
2023-05-23T09:44:11.187Z,102480.97
2023-05-23T09:46:39.710Z,102449.25
2023-05-23T09:49:19.014Z,102455.59
2023-05-23T09:51:59.620Z,102460.06
2023-05-23T09:54:28.055Z,102491.59
2023-05-23T09:57:01.442Z,102466.75
2023-05-23T09:59:32.826Z,102489.41
2023-05-23T10:02:03.616Z,102473.38
2023-05-23T10:04:36.721Z,102459.38
2023-05-23T10:07:14.510Z,102447.66
2023-05-23T10:09:46.854Z,102482.03
2023-05-23T10:12:44.456Z,102484.84
2023-05-23T10:15:17.000Z,102490.00
2023-05-23T10:18:03.868Z,102490.03
2023-05-23T10:20:36.941Z,102476.88
2023-05-23T10:23:06.314Z,102493.16
2023-05-23T10:25:37.085Z,102491.13
2023-05-23T10:28:06.661Z,102501.88
2023-05-23T10:30:35.904Z,102502.25
2023-05-23T10:33:06.085Z,102500.94
2023-05-23T10:35:47.072Z,102503.13
2023-05-23T10:38:30.566Z,102514.25
2023-05-23T10:41:12.777Z,102502.28
2023-05-23T10:43:52.344Z,102467.78
2023-05-23T10:46:22.882Z,102483.38
2023-05-23T10:48:58.436Z,102482.28
2023-05-23T10:51:39.464Z,102496.06
2023-05-23T10:54:12.719Z,102479.81
2023-05-23T10:56:41.458Z,102494.75
2023-05-23T10:59:10.681Z,102469.97
2023-05-23T11:01:41.284Z,102491.09
2023-05-23T11:04:13.073Z,102492.16
2023-05-23T11:06:44.684Z,102493.06
2023-05-23T11:09:18.719Z,102487.53
2023-05-23T11:12:10.919Z,102457.53
2023-05-23T11:15:03.012Z,102485.63
2023-05-23T11:17:33.708Z,102486.06
2023-05-23T11:20:07.110Z,102475.47
2023-05-23T11:22:37.719Z,102455.47
2023-05-23T11:25:10.259Z,102494.50
2023-05-23T11:27:42.746Z,102491.81
2023-05-23T11:30:14.637Z,102493.97
2023-05-23T11:32:44.365Z,102472.19
2023-05-23T11:35:12.987Z,102493.22
2023-05-23T11:37:42.847Z,102500.00
2023-05-23T11:40:29.564Z,102496.22
2023-05-23T11:42:58.911Z,102496.41
2023-05-23T11:45:28.150Z,102488.78
2023-05-23T11:47:56.650Z,102495.63
2023-05-23T11:50:25.492Z,102486.94
2023-05-23T11:52:57.099Z,102471.19
2023-05-23T11:55:25.948Z,102502.94
2023-05-23T11:57:58.564Z,102464.59
2023-05-23T12:00:26.928Z,102512.25
2023-05-23T12:02:55.419Z,102504.78
2023-05-23T12:05:24.062Z,102504.63
2023-05-23T12:07:53.930Z,102492.78
2023-05-23T12:10:29.509Z,102485.91
2023-05-23T12:12:58.221Z,102496.91
2023-05-23T12:15:28.511Z,102509.38
2023-05-23T12:17:57.201Z,102516.81
2023-05-23T12:20:27.345Z,102463.34
2023-05-23T12:23:04.938Z,102514.38
2023-05-23T12:25:41.930Z,102522.78
2023-05-23T12:28:13.961Z,102525.34
2023-05-23T12:30:43.525Z,102519.19
2023-05-23T12:33:13.050Z,102525.84
2023-05-23T12:35:46.143Z,102503.88
2023-05-23T12:38:18.415Z,102523.31
2023-05-23T12:40:47.110Z,102505.72
2023-05-23T12:43:17.939Z,102502.19
2023-05-23T12:45:46.266Z,102517.88
2023-05-23T12:48:14.680Z,102518.81
2023-05-23T12:50:42.964Z,102480.50
2023-05-23T12:53:11.257Z,102518.34
2023-05-23T12:55:41.188Z,102511.38
2023-05-23T12:58:09.523Z,102505.53
2023-05-23T13:00:37.853Z,102491.06
2023-05-23T13:03:07.508Z,102503.28
2023-05-23T13:05:35.762Z,102490.53
2023-05-23T13:08:04.073Z,102490.34
2023-05-23T13:10:32.563Z,102506.25
2023-05-23T13:13:02.408Z,102512.31
2023-05-23T13:15:30.978Z,102469.38
2023-05-23T13:17:59.446Z,102506.44
2023-05-23T13:20:30.178Z,102505.38
2023-05-23T13:23:01.835Z,102513.31
2023-05-23T13:25:30.175Z,102520.47
2023-05-23T13:27:59.250Z,102527.91
2023-05-23T13:30:29.781Z,102500.56
2023-05-23T13:32:58.076Z,102526.22
2023-05-23T13:35:26.664Z,102522.28
2023-05-23T13:37:54.903Z,102515.47
2023-05-23T13:40:25.063Z,102516.06
2023-05-23T13:42:53.452Z,102494.59
2023-05-23T13:45:23.050Z,102514.13
2023-05-23T13:47:53.009Z,102519.97
2023-05-23T13:50:21.356Z,102506.88
2023-05-23T13:52:49.794Z,102479.09
2023-05-23T13:55:18.991Z,102525.47
2023-05-23T13:57:47.413Z,102508.69
2023-05-23T14:00:17.466Z,102479.38
2023-05-23T14:02:45.824Z,102522.34
2023-05-23T14:05:15.830Z,102501.56
2023-05-23T14:07:47.211Z,102511.56
2023-05-23T14:10:17.332Z,102504.41
2023-05-23T14:12:46.033Z,102511.06
2023-05-23T14:15:14.601Z,102512.28
2023-05-23T14:17:42.948Z,102521.13
2023-05-23T14:20:12.580Z,102508.88
2023-05-23T14:22:42.254Z,102512.06
2023-05-23T14:25:11.203Z,102500.75
2023-05-23T14:27:40.316Z,102505.16
2023-05-23T14:30:11.707Z,102501.75
2023-05-23T14:32:40.364Z,102514.09
2023-05-23T14:35:11.325Z,102490.59
2023-05-23T14:37:41.239Z,102516.06
2023-05-23T14:40:11.233Z,102511.13
2023-05-23T14:42:39.484Z,102511.22
2023-05-23T14:45:08.940Z,102519.00
2023-05-23T14:47:37.839Z,102518.28
2023-05-23T14:50:07.537Z,102512.16
2023-05-23T14:52:35.804Z,102517.56
2023-05-23T14:55:06.344Z,102526.44
2023-05-23T14:57:34.570Z,102531.31
2023-05-23T15:00:05.350Z,102495.97
2023-05-23T15:02:34.040Z,102504.28
2023-05-23T15:05:02.374Z,102514.44
2023-05-23T15:07:30.652Z,102467.66
2023-05-23T15:10:00.548Z,102511.31
2023-05-23T15:12:30.601Z,102513.03
2023-05-23T15:15:03.748Z,102508.19
2023-05-23T15:17:33.256Z,102479.97
2023-05-23T15:20:03.783Z,102477.78
2023-05-23T15:22:39.416Z,102504.97
2023-05-23T15:25:10.036Z,102520.00
2023-05-23T15:27:39.845Z,102479.13
2023-05-23T15:30:10.374Z,102530.63
2023-05-23T15:32:38.679Z,102487.56
2023-05-23T15:35:08.366Z,102533.31
2023-05-23T15:37:36.723Z,102517.34
2023-05-23T15:40:05.730Z,102544.59
2023-05-23T15:42:34.191Z,102532.78
2023-05-23T15:45:04.157Z,102532.72
2023-05-23T15:47:32.410Z,102537.16
2023-05-23T15:50:00.709Z,102536.59
2023-05-23T15:52:29.256Z,102528.69
2023-05-23T15:54:58.095Z,102534.13
2023-05-23T15:57:26.327Z,102535.72
2023-05-23T15:59:54.677Z,102532.69
2023-05-23T16:02:24.439Z,102526.19
2023-05-23T16:04:52.680Z,102539.88
2023-05-23T16:07:20.942Z,102541.03
2023-05-23T16:09:51.060Z,102528.88
2023-05-23T16:12:19.340Z,102539.25
2023-05-23T16:14:47.886Z,102530.66
2023-05-23T16:17:16.376Z,102530.00
2023-05-23T16:19:46.014Z,102536.31
2023-05-23T16:22:14.432Z,102539.44
2023-05-23T16:24:42.956Z,102522.59
2023-05-23T16:27:12.689Z,102543.53
2023-05-23T16:29:41.091Z,102540.81
2023-05-23T16:32:09.731Z,102535.84
2023-05-23T16:34:38.018Z,102510.38
2023-05-23T16:37:07.963Z,102548.38
2023-05-23T16:39:36.500Z,102528.56
2023-05-23T16:42:05.370Z,102531.59
2023-05-23T16:44:33.715Z,102535.25
2023-05-23T16:47:02.039Z,102527.34
2023-05-23T16:49:30.329Z,102529.69
2023-05-23T16:51:58.865Z,102526.72
2023-05-23T16:54:28.492Z,102515.25
2023-05-23T16:56:57.800Z,102527.31
2023-05-23T16:59:26.242Z,102523.38
2023-05-23T17:01:54.623Z,102486.78
2023-05-23T17:04:23.312Z,102489.25
2023-05-23T17:06:52.359Z,102536.00
2023-05-23T17:09:21.853Z,102517.66
2023-05-23T17:11:53.193Z,102532.59
2023-05-23T17:14:21.699Z,102532.25
2023-05-23T17:16:49.935Z,102539.13
2023-05-23T17:19:18.182Z,102533.41
2023-05-23T17:21:47.390Z,102537.75
2023-05-23T17:24:16.154Z,102490.69
2023-05-23T17:26:44.803Z,102518.25
2023-05-23T17:29:16.360Z,102547.28
2023-05-23T17:31:44.681Z,102538.81
2023-05-23T17:34:13.323Z,102548.97
2023-05-23T17:36:41.587Z,102512.94
2023-05-23T17:39:09.853Z,102539.88
2023-05-23T17:41:38.094Z,102536.16
2023-05-23T17:44:06.451Z,102534.63
2023-05-23T17:46:36.588Z,102538.69
2023-05-23T17:49:04.844Z,102531.03
2023-05-23T17:51:33.494Z,102547.75
2023-05-23T17:54:02.979Z,102532.59
2023-05-23T17:56:31.424Z,102552.47
2023-05-23T17:58:59.670Z,102509.53
2023-05-23T18:01:28.012Z,102551.06
2023-05-23T18:03:57.859Z,102553.94
2023-05-23T18:06:26.990Z,102553.72
2023-05-23T18:08:55.649Z,102541.44
2023-05-23T18:11:25.820Z,102558.72
2023-05-23T18:13:54.164Z,102509.72
2023-05-23T18:16:22.770Z,102564.50
2023-05-23T18:18:51.449Z,102564.72
2023-05-23T18:21:21.290Z,102542.66
2023-05-23T18:23:49.638Z,102562.84
2023-05-23T18:26:17.925Z,102522.47
2023-05-23T18:28:46.293Z,102546.19
2023-05-23T18:31:14.562Z,102561.75
2023-05-23T18:33:42.803Z,102560.06
2023-05-23T18:36:11.100Z,102565.56
2023-05-23T18:38:41.733Z,102513.38
2023-05-23T18:41:13.183Z,102565.13
2023-05-23T18:43:43.359Z,102569.06
2023-05-23T18:46:11.706Z,102566.34
2023-05-23T18:48:40.751Z,102545.84
2023-05-23T18:51:09.489Z,102572.94
2023-05-23T18:53:38.131Z,102530.69
2023-05-23T18:56:08.694Z,102585.81
2023-05-23T18:58:37.156Z,102577.19
2023-05-23T19:01:06.922Z,102578.84
2023-05-23T19:03:37.232Z,102582.94
2023-05-23T19:06:08.129Z,102587.34
2023-05-23T19:08:36.498Z,102586.78
2023-05-23T19:11:04.884Z,102584.56
2023-05-23T19:13:34.848Z,102595.41
2023-05-23T19:16:03.129Z,102573.09
2023-05-23T19:18:31.783Z,102605.72
2023-05-23T19:21:00.017Z,102602.69
2023-05-23T19:23:28.977Z,102607.16
2023-05-23T19:25:57.795Z,102614.72
2023-05-23T19:28:26.173Z,102614.13
2023-05-23T19:30:55.943Z,102620.84
2023-05-23T19:33:24.390Z,102620.38
2023-05-23T19:35:53.128Z,102614.31
2023-05-23T19:38:21.796Z,102626.16
2023-05-23T19:40:51.030Z,102627.94
2023-05-23T19:43:19.318Z,102582.19
2023-05-23T19:45:47.891Z,102611.09
2023-05-23T19:48:17.697Z,102634.56
2023-05-23T19:50:47.504Z,102621.31
2023-05-23T19:53:15.995Z,102642.00
2023-05-23T19:55:44.405Z,102636.38
2023-05-23T19:58:12.604Z,102641.59
2023-05-23T20:00:41.469Z,102654.28
2023-05-23T20:03:10.208Z,102654.50
2023-05-23T20:05:40.003Z,102631.78
2023-05-23T20:08:08.630Z,102663.59
2023-05-23T20:10:37.409Z,102665.53
2023-05-23T20:13:06.116Z,102659.81
2023-05-23T20:15:39.859Z,102662.47
2023-05-23T20:18:13.559Z,102644.38
2023-05-23T20:20:43.268Z,102674.56
2023-05-23T20:23:11.663Z,102674.94
2023-05-23T20:25:39.891Z,102676.25
2023-05-23T20:28:08.490Z,102668.06
2023-05-23T20:30:36.954Z,102673.09
2023-05-23T20:33:05.608Z,102669.56
2023-05-23T20:35:33.792Z,102673.66
2023-05-23T20:38:03.569Z,102669.00
2023-05-23T20:40:33.748Z,102668.38
2023-05-23T20:43:04.793Z,102637.66
2023-05-23T20:45:33.544Z,102661.34
2023-05-23T20:48:01.999Z,102665.81
2023-05-23T20:50:31.308Z,102655.13
2023-05-23T20:53:02.216Z,102662.78
2023-05-23T20:55:35.383Z,102657.53
2023-05-23T20:58:03.789Z,102663.28
2023-05-23T21:00:32.182Z,102652.06
2023-05-23T21:03:00.622Z,102652.88
2023-05-23T21:05:28.982Z,102654.19
2023-05-23T21:07:57.824Z,102575.53
2023-05-23T21:10:26.445Z,102652.41
2023-05-23T21:12:56.081Z,102657.56
2023-05-23T21:15:24.769Z,102631.94
2023-05-23T21:17:53.337Z,102634.63
2023-05-23T21:20:22.280Z,102645.03
2023-05-23T21:22:52.947Z,102664.06
2023-05-23T21:25:21.565Z,102628.25
2023-05-23T21:27:49.894Z,102651.19
2023-05-23T21:30:19.556Z,102637.84
2023-05-23T21:32:47.928Z,102660.78
2023-05-23T21:35:16.405Z,102659.16
2023-05-23T21:37:44.610Z,102668.16
2023-05-23T21:40:13.556Z,102670.31
2023-05-23T21:42:41.777Z,102670.09
2023-05-23T21:45:11.618Z,102681.72
2023-05-23T21:47:41.193Z,102676.81
2023-05-23T21:50:11.715Z,102649.84
2023-05-23T21:52:40.018Z,102677.56
2023-05-23T21:55:09.002Z,102672.31
2023-05-23T21:57:37.447Z,102665.59
2023-05-23T22:00:12.170Z,102648.31
2023-05-23T22:02:45.562Z,102663.66
2023-05-23T22:05:14.136Z,102644.19
2023-05-23T22:07:42.362Z,102659.63
2023-05-23T22:10:11.588Z,102647.75
2023-05-23T22:12:40.053Z,102673.59
2023-05-23T22:15:10.490Z,102676.69
2023-05-23T22:17:43.292Z,102657.97
2023-05-23T22:20:14.739Z,102656.81
2023-05-23T22:22:43.083Z,102661.16
2023-05-23T22:25:11.606Z,102621.41
2023-05-23T22:27:39.841Z,102670.63
2023-05-23T22:30:09.561Z,102648.25
2023-05-23T22:32:37.832Z,102663.22
2023-05-23T22:35:07.016Z,102655.84
2023-05-23T22:37:36.658Z,102652.22
2023-05-23T22:40:06.414Z,102661.63
2023-05-23T22:42:34.814Z,102665.66
2023-05-23T22:45:03.131Z,102666.00
2023-05-23T22:47:32.426Z,102665.13
2023-05-23T22:50:00.791Z,102663.22
2023-05-23T22:52:31.243Z,102642.84
2023-05-23T22:55:01.073Z,102653.00
2023-05-23T22:57:29.296Z,102661.59
2023-05-23T22:59:57.760Z,102657.03
2023-05-23T23:02:26.188Z,102676.13
2023-05-23T23:04:54.922Z,102675.69
2023-05-23T23:07:23.194Z,102672.38
2023-05-23T23:09:52.069Z,102670.66
2023-05-23T23:12:21.837Z,102634.69
2023-05-23T23:14:50.773Z,102677.41
2023-05-23T23:17:19.086Z,102668.47
2023-05-23T23:19:49.626Z,102652.91
2023-05-23T23:22:18.661Z,102628.41
2023-05-23T23:24:47.601Z,102660.28
2023-05-23T23:27:15.906Z,102670.50
2023-05-23T23:29:45.494Z,102669.09
2023-05-23T23:32:13.753Z,102669.75
2023-05-23T23:34:42.093Z,102644.50
2023-05-23T23:37:10.506Z,102669.31
2023-05-23T23:39:38.796Z,102677.41
2023-05-23T23:42:07.444Z,102674.88
2023-05-23T23:44:35.968Z,102668.34
2023-05-23T23:47:06.024Z,102681.78
2023-05-23T23:49:34.323Z,102641.19
2023-05-23T23:52:02.642Z,102668.25
2023-05-23T23:54:30.917Z,102668.59
2023-05-23T23:56:59.868Z,102664.13
2023-05-23T23:59:28.275Z,102653.66
